MAPA DE AEROPUERTO

INFORMACIÓN METAR y TAF

METAR FOR LEAM
ADDS - METARS form results

(1111 UTC 07 May 2021)
Data provider http://aviationweather.gov/metar/data/
 
METAR text: LEAM 071100Z 21007KT 160V240 9999 FEW005 20/17 Q1018
Conditions at: LEAM (ALMERIA AIRPORT , ES) observed 1100 UTC 07 May 2021
Temperature: 20.0°C (68°F)
Dewpoint: 17.0°C (63°F) [RH = 83%]
Pressure (altimeter): 30.06 inches Hg (1018.0 mb)
Winds: from the SSW (210 degrees) at 8 MPH (7 knots; 3.6 m/s)
Visibility: 6 or more miles (10+ km)
Ceiling: at least 12,000 feet AGL
Clouds: few clouds at 500 feet AGL
Weather: no significant weather observed at this time

METAR text: LEAM 071030Z 20005KT 150V250 CAVOK 20/17 Q1018
Conditions at: LEAM (ALMERIA AIRPORT , ES) observed 1030 UTC 07 May 2021
Temperature: 20.0°C (68°F)
Dewpoint: 17.0°C (63°F) [RH = 83%]
Pressure (altimeter): 30.06 inches Hg (1018.0 mb)
Winds: from the SSW (200 degrees) at 6 MPH (5 knots; 2.6 m/s)
Visibility: 6 or more miles (10+ km)
Ceiling: ceiling and visibility are OK
Clouds: unknown
Weather: no significant weather observed at this time

Forecast for: LEAM (ALMERIA AIRPORT , ES)
Text: TAF LEAM 070500Z 0706/0806 18005KT CAVOK TX19/0715Z TN14/0706Z
Forecast period: 0600 UTC 07 May 2021 to 0600 UTC 08 May 2021
Forecast type: FROM: standard forecast or significant change
Winds: from the S (180 degrees) at 6 MPH (5 knots; 2.6 m/s)
Visibility: 6 or more miles (10+ km)
Ceiling: unknown
Clouds: missing
Weather: no significant weather forecast for this period